createdAt,value
2023-03-12T00:03:36.433Z,7.74
2023-03-12T00:08:38.171Z,7.90
2023-03-12T00:13:39.893Z,8.26
2023-03-12T00:18:41.469Z,8.39
2023-03-12T00:23:42.974Z,8.28
2023-03-12T00:28:44.446Z,8.40
2023-03-12T00:33:46.027Z,8.35
2023-03-12T00:38:47.507Z,8.18
2023-03-12T00:43:49.418Z,8.02
2023-03-12T00:48:50.946Z,8.06
2023-03-12T00:53:53.096Z,8.13
2023-03-12T00:58:54.558Z,7.79
2023-03-12T01:03:57.096Z,8.04
2023-03-12T01:08:58.604Z,7.90
2023-03-12T01:14:00.659Z,8.30
2023-03-12T01:19:02.244Z,8.23
2023-03-12T01:24:03.825Z,8.48
2023-03-12T01:29:05.309Z,8.55
2023-03-12T01:34:06.769Z,8.85
2023-03-12T01:39:08.273Z,9.01
2023-03-12T01:44:13.178Z,8.97
2023-03-12T01:49:30.135Z,8.91
2023-03-12T01:54:46.040Z,8.90
2023-03-12T01:59:50.296Z,9.01
2023-03-12T02:04:51.895Z,9.01
2023-03-12T02:09:53.379Z,9.09
2023-03-12T02:14:54.849Z,8.92
2023-03-12T02:20:16.162Z,8.99
2023-03-12T02:25:30.902Z,8.92
2023-03-12T02:30:32.536Z,9.09
2023-03-12T02:35:34.020Z,9.16
2023-03-12T02:40:38.797Z,9.20
2023-03-12T02:45:40.309Z,9.41
2023-03-12T02:50:42.638Z,9.43
2023-03-12T02:55:44.148Z,9.48
2023-03-12T03:00:45.659Z,9.51
2023-03-12T03:05:47.131Z,9.54
2023-03-12T03:10:51.701Z,9.57
2023-03-12T03:15:53.280Z,9.59
2023-03-12T03:20:59.777Z,9.66
2023-03-12T03:26:01.253Z,9.55
2023-03-12T03:31:02.949Z,9.52
2023-03-12T03:36:05.218Z,9.54
2023-03-12T03:41:06.669Z,9.46
2023-03-12T03:46:08.204Z,9.52
2023-03-12T03:51:09.987Z,9.51
2023-03-12T03:56:15.435Z,9.51
2023-03-12T04:01:17.053Z,9.41
2023-03-12T04:06:18.536Z,9.41
2023-03-12T04:11:20.808Z,9.42
2023-03-12T04:16:22.358Z,9.52
2023-03-12T04:21:23.860Z,9.54
2023-03-12T04:26:25.337Z,9.39
2023-03-12T04:31:26.863Z,9.27
2023-03-12T04:36:28.335Z,9.48
2023-03-12T04:41:29.832Z,9.17
2023-03-12T04:46:31.390Z,8.74
2023-03-12T04:51:33.150Z,8.64
2023-03-12T04:56:34.615Z,8.82
2023-03-12T05:01:36.502Z,8.60
2023-03-12T05:06:37.995Z,8.72
2023-03-12T05:11:40.035Z,8.27
2023-03-12T05:16:41.646Z,8.80
2023-03-12T05:21:43.224Z,8.71
2023-03-12T05:26:44.687Z,8.81
2023-03-12T05:31:46.232Z,8.71
2023-03-12T05:36:47.747Z,8.55
2023-03-12T05:41:49.278Z,8.45
2023-03-12T05:46:51.179Z,8.43
2023-03-12T05:51:52.653Z,8.50
2023-03-12T05:56:56.248Z,8.37
2023-03-12T06:01:58.105Z,8.23
2023-03-12T06:06:59.654Z,8.47
2023-03-12T06:12:01.105Z,8.11
2023-03-12T06:17:02.617Z,7.99
2023-03-12T06:22:04.324Z,8.12
2023-03-12T06:27:05.810Z,8.24
2023-03-12T06:32:07.509Z,8.12
2023-03-12T06:37:08.987Z,8.18
2023-03-12T06:42:12.825Z,8.21
2023-03-12T06:47:17.127Z,8.47
2023-03-12T06:52:18.993Z,8.47
2023-03-12T06:57:20.505Z,8.46
2023-03-12T07:02:22.021Z,8.46
2023-03-12T07:07:23.509Z,8.38
2023-03-12T07:12:24.972Z,8.46
2023-03-12T07:17:27.239Z,7.95
2023-03-12T07:22:28.713Z,8.15
2023-03-12T07:27:30.210Z,7.37
2023-03-12T07:32:33.508Z,7.56
2023-03-12T07:37:34.899Z,8.42
2023-03-12T07:42:36.416Z,8.47
2023-03-12T07:47:38.048Z,8.53
2023-03-12T07:52:39.561Z,8.15
2023-03-12T07:57:41.142Z,8.54
2023-03-12T08:02:42.853Z,8.78
2023-03-12T08:07:44.446Z,8.65
2023-03-12T08:12:45.889Z,8.22
2023-03-12T08:17:47.706Z,8.16
2023-03-12T08:22:49.237Z,8.64
2023-03-12T08:27:50.698Z,7.77
2023-03-12T08:32:52.215Z,8.68
2023-03-12T08:37:53.692Z,8.75
2023-03-12T08:42:55.153Z,9.10
2023-03-12T08:47:56.611Z,9.19
2023-03-12T08:52:58.778Z,8.10
2023-03-12T08:58:00.239Z,7.76
2023-03-12T09:03:01.745Z,8.32
2023-03-12T09:08:03.216Z,8.18
2023-03-12T09:13:04.766Z,7.95
2023-03-12T09:18:06.262Z,8.21
2023-03-12T09:23:07.905Z,8.08
2023-03-12T09:28:09.399Z,8.25
2023-03-12T09:33:10.909Z,7.41
2023-03-12T09:38:13.924Z,7.82
2023-03-12T09:43:25.875Z,8.03
2023-03-12T09:48:34.331Z,8.23
2023-03-12T09:53:51.361Z,8.14
2023-03-12T09:58:54.656Z,8.06
2023-03-12T10:04:04.277Z,8.17
2023-03-12T10:09:14.405Z,7.66
2023-03-12T10:14:23.830Z,8.15
2023-03-12T10:19:59.815Z,7.99
2023-03-12T10:25:08.437Z,8.12
2023-03-12T10:30:24.418Z,7.96
2023-03-12T10:35:27.877Z,8.55
2023-03-12T10:40:31.389Z,8.18
2023-03-12T10:46:10.701Z,8.19
2023-03-12T10:51:12.586Z,8.64
2023-03-12T10:56:15.640Z,8.10
2023-03-12T11:01:24.838Z,8.20
2023-03-12T11:06:29.847Z,7.71
2023-03-12T11:11:34.714Z,7.31
2023-03-12T11:16:36.175Z,7.50
2023-03-12T11:21:38.236Z,6.91
2023-03-12T11:27:14.927Z,7.16
2023-03-12T11:32:31.593Z,7.51
2023-03-12T11:37:54.147Z,7.55
2023-03-12T11:42:59.031Z,7.08
2023-03-12T11:48:08.328Z,7.16
2023-03-12T11:53:23.578Z,7.71
2023-03-12T11:58:36.439Z,7.23
2023-03-12T12:03:50.316Z,6.93
2023-03-12T12:09:06.921Z,6.73
2023-03-12T12:14:40.270Z,6.42
2023-03-12T12:19:54.927Z,6.55
2023-03-12T12:25:15.326Z,6.28
2023-03-12T12:30:30.847Z,6.85
2023-03-12T12:35:35.064Z,6.46
2023-03-12T12:40:39.034Z,6.18
2023-03-12T12:45:41.521Z,5.85
2023-03-12T12:50:43.068Z,5.53
2023-03-12T12:56:05.735Z,6.08
2023-03-12T13:01:07.624Z,6.66
2023-03-12T13:06:09.330Z,6.29
2023-03-12T13:11:20.307Z,6.27
2023-03-12T13:16:39.425Z,6.68
2023-03-12T13:21:44.730Z,5.95
2023-03-12T13:27:02.655Z,6.40
2023-03-12T13:32:04.794Z,6.94
2023-03-12T13:37:18.022Z,6.84
2023-03-12T13:42:37.144Z,6.56
2023-03-12T13:47:41.944Z,6.88
2023-03-12T13:53:01.720Z,6.22
2023-03-12T13:58:17.134Z,6.74
2023-03-12T14:03:21.059Z,6.89
2023-03-12T14:08:32.839Z,6.87
2023-03-12T14:13:45.212Z,6.82
2023-03-12T14:18:46.712Z,6.98
2023-03-12T14:23:53.847Z,7.48
2023-03-12T14:29:09.958Z,6.99
2023-03-12T14:34:20.531Z,7.55
2023-03-12T14:39:45.897Z,7.50
2023-03-12T14:45:00.264Z,7.60
2023-03-12T14:50:01.747Z,7.33
2023-03-12T14:55:07.479Z,7.10
2023-03-12T15:00:24.396Z,7.58
2023-03-12T15:05:26.692Z,7.99
2023-03-12T15:10:28.692Z,8.38
2023-03-12T15:15:37.327Z,8.73
2023-03-12T15:20:39.578Z,8.48
2023-03-12T15:25:41.064Z,9.20
2023-03-12T15:30:42.783Z,9.26
2023-03-12T15:36:06.518Z,9.45
2023-03-12T15:41:09.104Z,9.40
2023-03-12T15:46:11.017Z,9.38
2023-03-12T15:51:34.952Z,9.37
2023-03-12T15:56:36.441Z,8.91
2023-03-12T16:01:47.358Z,8.93
2023-03-12T16:06:49.472Z,9.68
2023-03-12T16:11:51.311Z,9.90
2023-03-12T16:16:52.839Z,10.29
2023-03-12T16:21:54.391Z,10.24
2023-03-12T16:26:57.349Z,10.16
2023-03-12T16:31:58.952Z,10.06
2023-03-12T16:37:00.472Z,10.13
2023-03-12T16:42:01.958Z,10.54
2023-03-12T16:47:03.514Z,10.72
2023-03-12T16:52:17.788Z,10.17
2023-03-12T16:57:38.211Z,10.28
2023-03-12T17:02:39.661Z,9.63
2023-03-12T17:07:41.155Z,10.34
2023-03-12T17:12:42.678Z,10.99
2023-03-12T17:17:44.207Z,10.61
2023-03-12T17:22:46.027Z,10.68
2023-03-12T17:27:47.552Z,10.77
2023-03-12T17:32:49.918Z,10.31
2023-03-12T17:37:51.449Z,9.98
2023-03-12T17:42:52.923Z,10.05
2023-03-12T17:47:54.398Z,10.30
2023-03-12T17:52:55.949Z,10.66
2023-03-12T17:57:57.441Z,11.32
2023-03-12T18:02:58.961Z,11.16
2023-03-12T18:08:00.479Z,12.01
2023-03-12T18:13:01.955Z,12.39
2023-03-12T18:18:03.697Z,12.41
2023-03-12T18:23:05.160Z,12.17
2023-03-12T18:28:06.683Z,11.33
2023-03-12T18:33:08.204Z,10.91
2023-03-12T18:38:09.669Z,10.12
2023-03-12T18:43:11.749Z,10.32
2023-03-12T18:48:13.236Z,10.41
2023-03-12T18:53:14.708Z,9.68
2023-03-12T18:58:16.166Z,9.76
2023-03-12T19:03:17.701Z,10.18
2023-03-12T19:08:20.714Z,10.60
2023-03-12T19:13:22.334Z,10.21
2023-03-12T19:18:23.813Z,10.01
2023-03-12T19:23:25.368Z,10.20
2023-03-12T19:28:26.837Z,10.40
2023-03-12T19:33:28.560Z,10.29
2023-03-12T19:38:30.155Z,10.34
2023-03-12T19:43:31.658Z,10.21
2023-03-12T19:48:33.112Z,9.85
2023-03-12T19:53:34.711Z,10.26
2023-03-12T19:58:36.168Z,10.84
2023-03-12T20:03:43.423Z,10.36
2023-03-12T20:08:45.609Z,10.51
2023-03-12T20:13:47.072Z,10.30
2023-03-12T20:18:48.614Z,10.34
2023-03-12T20:23:50.092Z,10.61
2023-03-12T20:28:51.574Z,10.79
2023-03-12T20:33:53.072Z,10.66
2023-03-12T20:38:54.539Z,10.64
2023-03-12T20:43:57.378Z,10.72
2023-03-12T20:48:58.879Z,10.46
2023-03-12T20:54:00.340Z,10.76
2023-03-12T20:59:01.819Z,11.29
2023-03-12T21:04:03.275Z,10.90
2023-03-12T21:09:04.862Z,11.03
2023-03-12T21:14:06.355Z,11.27
2023-03-12T21:19:07.806Z,11.37
2023-03-12T21:24:09.342Z,11.68
2023-03-12T21:29:10.859Z,11.07
2023-03-12T21:34:12.332Z,11.16
2023-03-12T21:39:13.898Z,11.24
2023-03-12T21:44:16.565Z,11.55
2023-03-12T21:49:18.327Z,11.45
2023-03-12T21:54:19.858Z,11.28
2023-03-12T21:59:21.321Z,11.16
2023-03-12T22:04:23.646Z,10.98
2023-03-12T22:09:25.162Z,11.21
2023-03-12T22:14:26.632Z,11.27
2023-03-12T22:19:28.187Z,11.17
2023-03-12T22:24:30.177Z,11.16
2023-03-12T22:29:31.894Z,11.13
2023-03-12T22:34:33.909Z,11.45
2023-03-12T22:39:36.403Z,11.45
2023-03-12T22:44:40.940Z,11.34
2023-03-12T22:49:42.403Z,11.39
2023-03-12T22:54:43.862Z,11.42
2023-03-12T22:59:47.003Z,11.33
2023-03-12T23:04:48.421Z,11.38
2023-03-12T23:09:49.909Z,11.59
2023-03-12T23:14:51.367Z,11.62
2023-03-12T23:19:52.836Z,11.89
2023-03-12T23:24:54.483Z,11.98
2023-03-12T23:29:55.992Z,11.75
2023-03-12T23:34:57.452Z,11.42
2023-03-12T23:39:59.080Z,11.19
2023-03-12T23:45:00.536Z,11.48
2023-03-12T23:50:02.190Z,11.18
2023-03-12T23:55:03.885Z,11.34
